Kezdőlap
METAR-TAF:

METAR-TAF

Repülőterek :

Pecos, Texas, Amerikai Egyesült Államok

földrajzi szélesség: 31-22-56N, földrajzi hosszúság: 103-30-38W, magasság: 796 m

Jelenlegi meteorológiai megfigyelések

A jelentés 41 perccel ezelõtt készült, 15:55 UTC
Délkeleti szél 12 kt széllökések: 19 kt
Hőmérséklet 32°C
Páratartalom 46%
Légköri nyomás 1008 hPa
Látótávolság: 16.1 km

METAR: KPEQ 181555Z AUTO 13012G19KT 10SM 32/19 A2976 RMK AO2 T03160192

Idő: 11:36 (16:36 UTC)

Előrejelzés

A jelentés 1 órával és 20 perccel ezelõtt készült, 15:16 UTC
Az előrejelzés 18-én 15 óra UTC és 19-én 12 óra UTC között érvényes
Kelet-délkeleti szél 14 kt széllökések: 25 kt
Látótávolság: 10 km
Kevés felhő 25000 lábon

TAF: KPEQ 181516Z 1815/1912 12014G25KT P6SM FEW250

Meteorológiai megfigyelések és előrejelzések több, mint 4000 repülőtéren (METAR és TAF jelentéseket).

A térképen piros és sárga pontok jelzik az elérhető meteorológiai állomásokat.

Mozgassa az egeret a pont fölött, hogy megjelenjen az állomás neve.

Azután kattintson az időjárási megfigyelések és előrejelzések megtekintéséhez.

A térkép megváltoztatása: kattintson a fekete keresztel jelölt zöld gombra ráközelítéshez, a vonallal jelölt zöld gombra távolításhoz, vagy a zöld nyilakra a szomszédos térképek eléréséhez.


METAR-TAF: